Aviation Digital Data Service (ADDS)

Output produced by METARs form (1357 UTC 30 August 2015)
found at http://aviationweather.gov/adds/metars/
 
KFNT 301120Z 3012/3112 VRB03KT 2SM BR BKN025 
     FM301400 VRB03KT 4SM BR BKN018 
     FM301600 23005KT P6SM BKN025 
     FM301800 VRB03KT P6SM BKN035 
     FM310000 VRB03KT P6SM SCT035 
     FM310900 VRB02KT 3SM BR SKC